createdAt,value
2022-08-09T00:00:12.087Z,21.76
2022-08-09T00:01:10.685Z,21.78
2022-08-09T00:02:10.709Z,21.69
2022-08-09T00:04:00.005Z,21.69
2022-08-09T00:04:24.900Z,21.75
2022-08-09T00:06:17.559Z,21.67
2022-08-09T00:06:19.427Z,21.61
2022-08-09T00:07:11.024Z,21.71
2022-08-09T00:08:10.139Z,21.64
2022-08-09T00:09:09.571Z,21.67
2022-08-09T00:10:09.559Z,21.60
2022-08-09T00:11:24.427Z,21.53
2022-08-09T00:12:22.364Z,21.51
2022-08-09T00:13:17.247Z,21.60
2022-08-09T00:14:10.545Z,21.56
2022-08-09T00:15:13.903Z,21.66
2022-08-09T00:16:09.505Z,21.67
2022-08-09T00:17:09.485Z,21.61
2022-08-09T00:18:12.164Z,21.60
2022-08-09T00:19:10.350Z,21.72
2022-08-09T00:20:12.101Z,21.67
2022-08-09T00:21:09.464Z,21.82
2022-08-09T00:22:09.432Z,21.75
2022-08-09T00:23:58.162Z,21.81
2022-08-09T00:24:10.453Z,21.83
2022-08-09T00:25:10.234Z,21.83
2022-08-09T00:26:11.043Z,21.83
2022-08-09T00:27:09.377Z,21.97
2022-08-09T00:28:09.365Z,21.83
2022-08-09T00:29:12.513Z,21.88
2022-08-09T00:30:25.137Z,21.92
2022-08-09T00:31:56.762Z,22.02
2022-08-09T00:32:12.770Z,21.99
2022-08-09T00:33:09.315Z,21.99
2022-08-09T00:34:09.297Z,22.04
2022-08-09T00:35:09.288Z,21.98
2022-08-09T00:36:09.306Z,22.09
2022-08-09T00:37:09.267Z,22.12
2022-08-09T00:38:09.256Z,22.09
2022-08-09T00:39:16.740Z,22.14
2022-08-09T00:40:17.041Z,22.13
2022-08-09T00:41:10.236Z,21.99
2022-08-09T00:44:15.310Z,22.01
2022-08-09T00:44:16.634Z,22.01
2022-08-09T00:44:25.064Z,22.01
2022-08-09T00:45:15.624Z,22.01
2022-08-09T00:46:10.182Z,22.04
2022-08-09T00:47:09.164Z,22.01
2022-08-09T00:48:10.146Z,22.02
2022-08-09T00:49:10.139Z,22.04
2022-08-09T00:50:14.793Z,21.99
2022-08-09T00:51:11.750Z,22.02
2022-08-09T00:52:15.980Z,22.02
2022-08-09T00:53:11.754Z,22.01
2022-08-09T00:54:09.083Z,22.06
2022-08-09T00:55:09.075Z,22.01
2022-08-09T00:56:10.180Z,22.04
2022-08-09T00:57:11.035Z,22.07
2022-08-09T00:58:09.215Z,22.02
2022-08-09T00:59:10.030Z,22.06
2022-08-09T01:00:21.391Z,21.99
2022-08-09T01:01:10.181Z,22.06
2022-08-09T01:02:09.998Z,22.01
2022-08-09T01:03:08.990Z,22.01
2022-08-09T01:04:08.976Z,22.04
2022-08-09T01:05:14.132Z,21.98
2022-08-09T01:06:17.708Z,21.98
2022-08-09T01:07:13.924Z,22.04
2022-08-09T01:08:08.929Z,22.10
2022-08-09T01:09:09.512Z,22.04
2022-08-09T01:10:08.908Z,22.04
2022-08-09T01:11:08.928Z,22.12
2022-08-09T01:12:08.887Z,22.06
2022-08-09T01:13:08.878Z,22.14
2022-08-09T01:14:10.024Z,22.01
2022-08-09T01:15:10.100Z,22.01
2022-08-09T01:16:09.843Z,21.98
2022-08-09T01:17:09.125Z,22.01
2022-08-09T01:18:08.824Z,21.97
2022-08-09T01:19:17.161Z,21.95
2022-08-09T01:20:09.818Z,21.98
2022-08-09T01:21:09.927Z,22.01
2022-08-09T01:22:12.277Z,21.97
2022-08-09T01:23:12.403Z,21.98
2022-08-09T01:24:09.757Z,21.95
2022-08-09T01:25:08.762Z,21.85
2022-08-09T01:26:08.740Z,21.99
2022-08-09T01:27:08.728Z,21.97
2022-08-09T01:28:08.719Z,21.95
2022-08-09T01:29:08.708Z,22.01
2022-08-09T01:30:08.706Z,22.06
2022-08-09T01:31:09.681Z,21.99
2022-08-09T01:32:39.058Z,21.97
2022-08-09T01:33:10.122Z,22.10
2022-08-09T01:34:08.925Z,22.10
2022-08-09T01:35:18.203Z,22.13
2022-08-09T01:36:09.627Z,22.07
2022-08-09T01:37:08.628Z,22.12
2022-08-09T01:38:10.745Z,22.14
2022-08-09T01:39:09.708Z,22.04
2022-08-09T01:40:08.598Z,22.04
2022-08-09T01:41:08.581Z,22.10
2022-08-09T01:42:11.129Z,22.07
2022-08-09T01:43:08.555Z,22.14
2022-08-09T01:44:08.541Z,22.06
2022-08-09T01:45:08.544Z,22.09
2022-08-09T01:46:08.521Z,22.17
2022-08-09T01:47:11.650Z,22.13
2022-08-09T01:48:08.498Z,21.97
2022-08-09T01:49:10.285Z,21.88
2022-08-09T01:50:08.493Z,21.88
2022-08-09T01:51:08.468Z,21.90
2022-08-09T01:52:08.454Z,21.91
2022-08-09T01:53:19.995Z,21.83
2022-08-09T01:54:09.433Z,21.88
2022-08-09T01:55:08.437Z,21.90
2022-08-09T01:56:08.413Z,21.88
2022-08-09T01:57:08.405Z,21.92
2022-08-09T01:58:08.392Z,21.95
2022-08-09T01:59:08.385Z,21.94
2022-08-09T02:00:09.031Z,21.90
2022-08-09T02:01:09.389Z,21.92
2022-08-09T02:02:09.405Z,21.98
2022-08-09T02:03:11.311Z,21.92
2022-08-09T02:04:09.322Z,21.98
2022-08-09T02:05:15.102Z,21.92
2022-08-09T02:06:09.303Z,21.81
2022-08-09T02:07:08.293Z,21.90
2022-08-09T02:08:35.353Z,21.90
2022-08-09T02:09:09.275Z,21.83
2022-08-09T02:10:08.272Z,21.91
2022-08-09T02:11:16.646Z,21.76
2022-08-09T02:12:09.244Z,21.81
2022-08-09T02:13:08.229Z,21.76
2022-08-09T02:14:09.433Z,21.79
2022-08-09T02:15:08.224Z,21.81
2022-08-09T02:16:08.196Z,21.76
2022-08-09T02:17:15.434Z,21.81
2022-08-09T02:18:10.758Z,21.69
2022-08-09T02:19:08.169Z,21.72
2022-08-09T02:20:08.165Z,21.79
2022-08-09T02:21:08.148Z,21.83
2022-08-09T02:22:08.134Z,21.79
2022-08-09T02:23:08.120Z,21.88
2022-08-09T02:24:08.113Z,21.83
2022-08-09T02:25:08.154Z,21.81
2022-08-09T02:26:08.090Z,21.94
2022-08-09T02:27:09.082Z,21.82
2022-08-09T02:28:09.693Z,21.83
2022-08-09T02:29:08.057Z,21.90
2022-08-09T02:30:08.044Z,21.88
2022-08-09T02:31:08.083Z,21.83
2022-08-09T02:32:08.022Z,21.72
2022-08-09T02:33:14.282Z,21.83
2022-08-09T02:34:13.114Z,21.94
2022-08-09T02:35:17.673Z,21.88
2022-08-09T02:36:10.581Z,21.76
2022-08-09T02:37:07.970Z,21.81
2022-08-09T02:38:07.962Z,21.91
2022-08-09T02:39:14.354Z,21.83
2022-08-09T02:40:09.447Z,21.91
2022-08-09T02:41:07.928Z,21.94
2022-08-09T02:42:07.914Z,21.92
2022-08-09T02:43:07.908Z,21.99
2022-08-09T02:44:22.049Z,21.94
2022-08-09T02:45:08.901Z,21.91
2022-08-09T02:46:07.873Z,21.95
2022-08-09T02:47:07.863Z,21.94
2022-08-09T02:48:19.390Z,21.83
2022-08-09T02:49:08.841Z,21.92
2022-08-09T02:50:07.837Z,21.85
2022-08-09T02:51:07.820Z,21.91
2022-08-09T02:52:07.926Z,21.92
2022-08-09T02:53:07.800Z,21.91
2022-08-09T02:54:07.788Z,21.85
2022-08-09T02:55:20.072Z,21.78
2022-08-09T02:56:08.766Z,21.79
2022-08-09T02:57:13.924Z,21.78
2022-08-09T02:58:36.205Z,21.81
2022-08-09T02:59:08.736Z,21.78
2022-08-09T03:00:21.057Z,21.82
2022-08-09T03:01:11.220Z,21.81
2022-08-09T03:02:11.907Z,21.75
2022-08-09T03:03:07.715Z,21.76
2022-08-09T03:04:17.539Z,21.71
2022-08-09T03:05:08.679Z,21.63
2022-08-09T03:06:08.661Z,21.69
2022-08-09T03:07:14.132Z,21.64
2022-08-09T03:08:08.633Z,21.72
2022-08-09T03:09:07.628Z,21.66
2022-08-09T03:10:07.625Z,21.69
2022-08-09T03:11:07.604Z,21.61
2022-08-09T03:12:11.250Z,21.72
2022-08-09T03:13:09.961Z,21.63
2022-08-09T03:14:07.570Z,21.56
2022-08-09T03:15:07.571Z,21.63
2022-08-09T03:16:07.553Z,21.61
2022-08-09T03:17:07.538Z,21.72
2022-08-09T03:18:09.717Z,21.61
2022-08-09T03:19:14.601Z,21.56
2022-08-09T03:20:11.429Z,21.61
2022-08-09T03:21:07.504Z,21.59
2022-08-09T03:22:12.210Z,21.57
2022-08-09T03:23:24.210Z,21.57
2022-08-09T03:24:10.122Z,21.57
2022-08-09T03:25:26.159Z,21.64
2022-08-09T03:26:08.446Z,21.59
2022-08-09T03:27:07.458Z,21.56
2022-08-09T03:28:11.418Z,21.56
2022-08-09T03:29:09.600Z,21.64
2022-08-09T03:30:08.412Z,21.60
2022-08-09T03:31:10.346Z,21.69
2022-08-09T03:32:08.509Z,21.66
2022-08-09T03:33:13.145Z,21.61
2022-08-09T03:34:08.358Z,21.74
2022-08-09T03:35:15.092Z,21.78
2022-08-09T03:36:12.878Z,21.79
2022-08-09T03:37:54.713Z,21.76
2022-08-09T03:38:08.315Z,21.79
2022-08-09T03:39:08.353Z,21.81
2022-08-09T03:40:07.401Z,21.75
2022-08-09T03:41:07.286Z,21.78
2022-08-09T03:42:07.284Z,21.78
2022-08-09T03:43:07.262Z,21.74
2022-08-09T03:44:08.950Z,21.64
2022-08-09T03:45:07.249Z,21.69
2022-08-09T03:46:20.287Z,21.66
2022-08-09T03:47:08.227Z,21.64
2022-08-09T03:48:07.210Z,21.50
2022-08-09T03:49:08.767Z,21.63
2022-08-09T03:50:07.262Z,21.67
2022-08-09T03:51:07.180Z,21.67
2022-08-09T03:52:08.162Z,21.59
2022-08-09T03:53:07.150Z,21.57
2022-08-09T03:54:10.646Z,21.63
2022-08-09T03:55:07.790Z,21.60
2022-08-09T03:56:07.121Z,21.57
2022-08-09T03:57:18.283Z,21.56
2022-08-09T03:58:16.173Z,21.51
2022-08-09T03:59:08.085Z,21.54
2022-08-09T04:00:08.094Z,21.54
2022-08-09T04:01:07.152Z,21.54
2022-08-09T04:02:07.056Z,21.57
2022-08-09T04:03:07.046Z,21.39
2022-08-09T04:04:10.120Z,21.54
2022-08-09T04:05:26.934Z,21.51
2022-08-09T04:06:08.023Z,21.59
2022-08-09T04:07:07.011Z,21.56
2022-08-09T04:08:06.991Z,21.57
2022-08-09T04:09:15.130Z,21.59
2022-08-09T04:10:07.992Z,21.57
2022-08-09T04:11:06.958Z,21.57
2022-08-09T04:12:06.949Z,21.60
2022-08-09T04:13:07.949Z,21.56
2022-08-09T04:14:53.033Z,21.60
2022-08-09T04:15:11.429Z,21.57
2022-08-09T04:16:17.682Z,21.61
2022-08-09T04:17:07.894Z,21.57
2022-08-09T04:18:06.884Z,21.56
2022-08-09T04:19:10.964Z,21.61
2022-08-09T04:20:07.875Z,21.57
2022-08-09T04:21:06.852Z,21.57
2022-08-09T04:22:06.844Z,21.59
2022-08-09T04:23:10.060Z,21.57
2022-08-09T04:24:07.830Z,21.57
2022-08-09T04:25:06.823Z,21.59
2022-08-09T04:26:06.797Z,21.53
2022-08-09T04:27:06.785Z,21.63
2022-08-09T04:28:06.777Z,21.59
2022-08-09T04:29:13.462Z,21.61
2022-08-09T04:30:07.769Z,21.57
2022-08-09T04:31:08.303Z,21.69
2022-08-09T04:32:06.738Z,21.72
2022-08-09T04:33:07.782Z,21.61
2022-08-09T04:34:09.287Z,21.64
2022-08-09T04:35:08.673Z,21.53
2022-08-09T04:36:06.689Z,21.57
2022-08-09T04:37:06.680Z,21.61
2022-08-09T04:38:06.671Z,21.63
2022-08-09T04:39:06.706Z,21.63
2022-08-09T04:40:06.665Z,21.59
2022-08-09T04:41:06.634Z,21.57
2022-08-09T04:42:09.308Z,21.60
2022-08-09T04:43:06.620Z,21.56
2022-08-09T04:44:09.752Z,21.63
2022-08-09T04:45:06.605Z,21.59
2022-08-09T04:46:06.589Z,21.64
2022-08-09T04:47:07.577Z,21.72
2022-08-09T04:48:10.342Z,21.60
2022-08-09T04:49:06.547Z,21.61
2022-08-09T04:50:06.553Z,21.57
2022-08-09T04:51:06.542Z,21.57
2022-08-09T04:52:07.330Z,21.57
2022-08-09T04:53:06.509Z,21.64
2022-08-09T04:54:07.499Z,21.71
2022-08-09T04:55:11.871Z,21.61
2022-08-09T04:56:07.476Z,21.60
2022-08-09T04:57:09.269Z,21.61
2022-08-09T04:58:09.593Z,21.67
2022-08-09T04:59:15.339Z,21.59
2022-08-09T05:00:07.448Z,21.63
2022-08-09T05:01:16.062Z,21.69
2022-08-09T05:02:07.412Z,21.64
2022-08-09T05:03:12.736Z,21.67
2022-08-09T05:04:07.468Z,21.57
2022-08-09T05:05:10.104Z,21.63
2022-08-09T05:06:06.919Z,21.61
2022-08-09T05:07:06.355Z,21.63
2022-08-09T05:08:07.372Z,21.64
2022-08-09T05:09:06.332Z,21.74
2022-08-09T05:10:06.343Z,21.74
2022-08-09T05:11:06.766Z,21.53
2022-08-09T05:12:06.312Z,21.63
2022-08-09T05:13:06.290Z,21.63
2022-08-09T05:14:06.725Z,21.64
2022-08-09T05:15:11.613Z,21.57
2022-08-09T05:16:07.264Z,21.60
2022-08-09T05:17:06.249Z,21.69
2022-08-09T05:18:50.871Z,21.56
2022-08-09T05:19:07.676Z,21.59
2022-08-09T05:20:06.244Z,21.61
2022-08-09T05:21:13.405Z,21.66
2022-08-09T05:22:07.195Z,21.64
2022-08-09T05:23:56.722Z,21.75
2022-08-09T05:24:07.534Z,21.67
2022-08-09T05:25:06.198Z,21.91
2022-08-09T05:26:06.153Z,21.81
2022-08-09T05:27:06.145Z,21.90
2022-08-09T05:28:06.141Z,21.98
2022-08-09T05:29:06.120Z,21.94
2022-08-09T05:30:06.121Z,21.98
2022-08-09T05:31:09.424Z,21.94
2022-08-09T05:32:06.085Z,21.88
2022-08-09T05:33:09.499Z,21.91
2022-08-09T05:34:06.065Z,21.97
2022-08-09T05:35:06.076Z,21.88
2022-08-09T05:36:07.158Z,21.94
2022-08-09T05:37:11.221Z,21.91
2022-08-09T05:38:07.021Z,21.94
2022-08-09T05:39:06.088Z,22.04
2022-08-09T05:40:06.103Z,22.01
2022-08-09T05:41:06.014Z,22.10
2022-08-09T05:42:06.977Z,22.12
2022-08-09T05:43:05.982Z,22.17
2022-08-09T05:44:05.957Z,22.10
2022-08-09T05:45:05.958Z,22.12
2022-08-09T05:46:05.935Z,22.12
2022-08-09T05:47:06.006Z,22.14
2022-08-09T05:48:05.915Z,22.22
2022-08-09T05:49:07.469Z,22.20
2022-08-09T05:50:25.255Z,22.28
2022-08-09T05:51:29.935Z,22.28
2022-08-09T05:52:07.884Z,22.16
2022-08-09T05:53:05.862Z,22.23
2022-08-09T05:54:06.849Z,22.22
2022-08-09T05:55:07.469Z,22.34
2022-08-09T05:56:05.833Z,22.32
2022-08-09T05:57:06.297Z,22.43
2022-08-09T05:58:07.146Z,22.39
2022-08-09T05:59:05.824Z,22.50
2022-08-09T06:00:05.804Z,22.46
2022-08-09T06:01:06.662Z,22.46
2022-08-09T06:02:05.768Z,22.41
2022-08-09T06:03:10.609Z,22.46
2022-08-09T06:04:06.810Z,22.46
2022-08-09T06:05:05.746Z,22.43
2022-08-09T06:06:06.562Z,22.44
2022-08-09T06:07:05.713Z,22.47
2022-08-09T06:08:08.035Z,22.41
2022-08-09T06:09:22.985Z,22.47
2022-08-09T06:10:06.695Z,22.50
2022-08-09T06:11:16.340Z,22.50
2022-08-09T06:12:06.662Z,22.43
2022-08-09T06:13:12.206Z,22.46
2022-08-09T06:14:06.641Z,22.46
2022-08-09T06:15:09.841Z,22.44
2022-08-09T06:16:05.622Z,22.46
2022-08-09T06:17:09.316Z,22.50
2022-08-09T06:18:05.613Z,22.43
2022-08-09T06:19:05.586Z,22.50
2022-08-09T06:20:05.598Z,22.49
2022-08-09T06:21:05.720Z,22.47
2022-08-09T06:22:05.558Z,22.50
2022-08-09T06:23:06.548Z,22.52
2022-08-09T06:24:06.536Z,22.50
2022-08-09T06:25:08.581Z,22.46
2022-08-09T06:26:06.522Z,22.56
2022-08-09T06:27:05.599Z,22.52
2022-08-09T06:28:05.501Z,22.57
2022-08-09T06:29:05.687Z,22.56
2022-08-09T06:30:09.454Z,22.46
2022-08-09T06:31:05.463Z,22.59
2022-08-09T06:32:36.229Z,22.59
2022-08-09T06:33:30.185Z,22.65
2022-08-09T06:34:06.437Z,22.71
2022-08-09T06:35:06.342Z,22.71
2022-08-09T06:36:07.350Z,22.68
2022-08-09T06:37:05.401Z,22.69
2022-08-09T06:38:06.776Z,22.72
2022-08-09T06:39:09.245Z,22.72
2022-08-09T06:40:21.853Z,22.69
2022-08-09T06:41:18.968Z,22.74
2022-08-09T06:42:08.581Z,22.74
2022-08-09T06:43:07.724Z,22.71
2022-08-09T06:44:06.327Z,22.74
2022-08-09T06:46:05.257Z,22.67
2022-08-09T06:46:10.897Z,22.71
2022-08-09T06:47:06.297Z,22.74
2022-08-09T06:48:05.299Z,22.83
2022-08-09T06:49:05.284Z,22.83
2022-08-09T06:50:13.636Z,22.90
2022-08-09T06:51:06.257Z,23.04
2022-08-09T06:52:05.251Z,22.99
2022-08-09T06:53:05.231Z,23.05
2022-08-09T06:54:05.889Z,23.12
2022-08-09T06:55:12.583Z,23.26
2022-08-09T06:56:06.203Z,23.27
2022-08-09T06:57:05.191Z,23.42
2022-08-09T06:58:05.181Z,23.68
2022-08-09T07:00:49.733Z,23.86
2022-08-09T07:00:52.509Z,23.79
2022-08-09T07:01:06.144Z,23.98
2022-08-09T07:02:05.332Z,24.14
2022-08-09T07:03:06.121Z,24.20
2022-08-09T07:04:05.115Z,24.23
2022-08-09T07:05:05.113Z,24.34
2022-08-09T07:06:05.533Z,24.34
2022-08-09T07:07:05.265Z,24.37
2022-08-09T07:08:05.072Z,24.61
2022-08-09T07:09:05.058Z,24.92
2022-08-09T07:10:14.209Z,25.25
2022-08-09T07:11:06.628Z,25.37
2022-08-09T07:12:05.038Z,25.53
2022-08-09T07:13:05.385Z,25.71
2022-08-09T07:14:06.438Z,25.77
2022-08-09T07:16:36.200Z,26.01
2022-08-09T07:16:42.869Z,25.97
2022-08-09T07:17:08.190Z,25.84
2022-08-09T07:18:04.961Z,25.61
2022-08-09T07:19:05.982Z,25.57
2022-08-09T07:20:04.948Z,25.44
2022-08-09T07:21:04.935Z,25.61
2022-08-09T07:22:04.919Z,25.49
2022-08-09T07:23:18.054Z,25.39
2022-08-09T07:24:05.907Z,25.46
2022-08-09T07:25:05.435Z,25.34
2022-08-09T07:26:04.911Z,25.28
2022-08-09T07:27:21.081Z,25.43
2022-08-09T07:28:05.860Z,25.32
2022-08-09T07:29:08.503Z,25.43
2022-08-09T07:30:05.833Z,25.31
2022-08-09T07:31:04.994Z,25.30
2022-08-09T07:32:04.814Z,25.30
2022-08-09T07:33:12.349Z,25.22
2022-08-09T07:34:05.800Z,25.16
2022-08-09T07:35:10.741Z,25.16
2022-08-09T07:36:05.794Z,25.65
2022-08-09T07:37:04.774Z,26.05
2022-08-09T07:38:04.748Z,26.42
2022-08-09T07:39:04.788Z,26.68
2022-08-09T07:40:05.792Z,26.94
2022-08-09T07:41:12.843Z,27.29
2022-08-09T07:42:06.289Z,27.46
2022-08-09T07:43:06.981Z,27.77
2022-08-09T07:44:05.697Z,28.07
2022-08-09T07:45:06.468Z,28.44
2022-08-09T07:46:05.663Z,28.70
2022-08-09T07:47:04.657Z,28.77
2022-08-09T07:48:05.129Z,29.06
2022-08-09T07:49:04.636Z,29.10
2022-08-09T07:50:08.732Z,29.41
2022-08-09T07:52:03.491Z,29.49
2022-08-09T07:52:17.727Z,29.75
2022-08-09T07:53:05.606Z,29.87
2022-08-09T07:54:08.455Z,29.97
2022-08-09T07:55:09.723Z,30.00
2022-08-09T07:56:06.517Z,30.15
2022-08-09T07:57:04.550Z,30.16
2022-08-09T07:58:05.549Z,30.02
2022-08-09T07:59:14.201Z,30.15
2022-08-09T08:00:08.750Z,30.36
2022-08-09T08:01:06.699Z,30.38
2022-08-09T08:02:05.613Z,30.26
2022-08-09T08:03:08.099Z,30.30
2022-08-09T08:04:04.479Z,30.16
2022-08-09T08:05:17.762Z,30.47
2022-08-09T08:06:05.464Z,30.71
2022-08-09T08:07:09.326Z,30.84
2022-08-09T08:09:01.778Z,31.05
2022-08-09T08:09:07.734Z,31.23
2022-08-09T08:10:08.776Z,31.35
2022-08-09T08:12:08.890Z,31.12
2022-08-09T08:12:11.273Z,31.02
2022-08-09T08:13:05.398Z,30.99
2022-08-09T08:14:04.820Z,30.93
2022-08-09T08:15:04.376Z,30.71
2022-08-09T08:16:04.360Z,30.45
2022-08-09T08:17:08.715Z,30.26
2022-08-09T08:18:04.354Z,30.59
2022-08-09T08:19:04.542Z,30.98
2022-08-09T08:20:04.319Z,31.26
2022-08-09T08:21:05.310Z,31.15
2022-08-09T08:22:04.302Z,30.93
2022-08-09T08:23:17.134Z,30.96
2022-08-09T08:24:12.193Z,30.78
2022-08-09T08:25:05.270Z,30.61
2022-08-09T08:26:08.054Z,30.40
2022-08-09T08:27:05.282Z,30.26
2022-08-09T08:28:05.247Z,30.26
2022-08-09T08:29:04.228Z,30.47
2022-08-09T08:30:04.499Z,30.37
2022-08-09T08:31:14.395Z,30.76
2022-08-09T08:32:06.128Z,30.91
2022-08-09T08:33:04.476Z,31.28
2022-08-09T08:34:04.215Z,31.48
2022-08-09T08:35:04.172Z,31.67
2022-08-09T08:36:04.327Z,31.64
2022-08-09T08:37:04.162Z,31.72
2022-08-09T08:38:09.385Z,31.76
2022-08-09T08:39:05.199Z,31.99
2022-08-09T08:40:04.186Z,32.15
2022-08-09T08:41:06.169Z,32.37
2022-08-09T08:42:04.099Z,32.43
2022-08-09T08:43:13.457Z,32.37
2022-08-09T08:44:05.095Z,32.59
2022-08-09T08:45:11.724Z,32.84
2022-08-09T08:46:31.689Z,32.84
2022-08-09T08:47:12.493Z,32.80
2022-08-09T08:48:05.268Z,32.67
2022-08-09T08:49:04.044Z,32.67
2022-08-09T08:50:04.023Z,32.79
2022-08-09T08:51:04.012Z,33.06
2022-08-09T08:52:10.379Z,33.03
2022-08-09T08:53:05.387Z,32.91
2022-08-09T08:54:04.795Z,33.01
2022-08-09T08:55:05.409Z,33.11
2022-08-09T08:56:03.967Z,33.14
2022-08-09T08:57:03.973Z,33.17
2022-08-09T08:58:04.957Z,33.03
2022-08-09T08:59:07.693Z,32.64
2022-08-09T09:00:08.261Z,32.13
2022-08-09T09:01:08.847Z,31.68
2022-08-09T09:02:03.935Z,31.57
2022-08-09T09:03:12.098Z,31.67
2022-08-09T09:04:04.885Z,31.76
2022-08-09T09:05:10.163Z,31.95
2022-08-09T09:06:05.484Z,32.35
2022-08-09T09:07:03.858Z,32.52
2022-08-09T09:08:03.864Z,32.29
2022-08-09T09:09:06.761Z,32.35
2022-08-09T09:10:08.872Z,32.40
2022-08-09T09:11:03.998Z,32.59
2022-08-09T09:12:07.719Z,32.66
2022-08-09T09:13:09.496Z,33.08
2022-08-09T09:14:04.797Z,33.03
2022-08-09T09:15:03.788Z,32.93
2022-08-09T09:16:03.790Z,32.93
2022-08-09T09:17:03.764Z,33.13
2022-08-09T09:18:03.768Z,33.13
2022-08-09T09:19:37.234Z,33.08
2022-08-09T09:20:04.733Z,33.43
2022-08-09T09:21:03.728Z,33.63
2022-08-09T09:22:05.290Z,34.01
2022-08-09T09:23:03.722Z,34.20
2022-08-09T09:24:04.495Z,34.24
2022-08-09T09:26:02.486Z,34.14
2022-08-09T09:26:12.377Z,34.11
2022-08-09T09:27:04.676Z,34.05
2022-08-09T09:28:07.824Z,33.68
2022-08-09T09:29:11.198Z,33.33
2022-08-09T09:30:13.966Z,32.88
2022-08-09T09:31:04.625Z,32.80
2022-08-09T09:32:15.418Z,32.92
2022-08-09T09:33:16.984Z,33.10
2022-08-09T09:34:04.594Z,33.22
2022-08-09T09:35:03.684Z,33.55
2022-08-09T09:36:20.040Z,33.60
2022-08-09T09:37:04.580Z,33.45
2022-08-09T09:38:03.559Z,33.63
2022-08-09T09:39:03.600Z,33.46
2022-08-09T09:40:03.621Z,33.43
2022-08-09T09:41:03.532Z,33.36
2022-08-09T09:42:06.590Z,33.55
2022-08-09T09:43:04.522Z,33.52
2022-08-09T09:44:10.912Z,33.65
2022-08-09T09:45:04.501Z,33.90
2022-08-09T09:47:04.510Z,33.98
2022-08-09T09:48:03.463Z,34.01
2022-08-09T09:49:03.456Z,34.05
2022-08-09T09:50:14.519Z,34.05
2022-08-09T09:51:04.463Z,34.04
2022-08-09T09:52:04.437Z,34.00
2022-08-09T09:53:03.655Z,33.79
2022-08-09T09:54:10.611Z,34.05
2022-08-09T09:55:16.608Z,34.09
2022-08-09T09:56:05.473Z,34.35
2022-08-09T09:58:04.420Z,34.00
2022-08-09T09:58:17.346Z,33.87
2022-08-09T09:59:04.359Z,33.82
2022-08-09T10:00:03.353Z,34.04
2022-08-09T10:01:03.343Z,34.07
2022-08-09T10:02:03.336Z,33.97
2022-08-09T10:03:11.494Z,33.61
2022-08-09T10:04:09.695Z,33.63
2022-08-09T10:05:06.692Z,33.57
2022-08-09T10:06:04.897Z,33.48
2022-08-09T10:07:10.100Z,33.46
2022-08-09T10:08:25.980Z,33.43
2022-08-09T10:09:11.857Z,33.43
2022-08-09T10:10:04.255Z,33.49
2022-08-09T10:11:14.249Z,33.46
2022-08-09T10:12:14.376Z,33.57
2022-08-09T10:13:04.229Z,33.58
2022-08-09T10:14:03.215Z,33.71
2022-08-09T10:15:03.207Z,33.68
2022-08-09T10:16:55.645Z,33.60
2022-08-09T10:17:24.384Z,33.61
2022-08-09T10:18:04.179Z,33.73
2022-08-09T10:19:03.167Z,33.87
2022-08-09T10:20:03.157Z,34.02
2022-08-09T10:21:03.151Z,34.09
2022-08-09T10:22:03.167Z,34.22
2022-08-09T10:23:03.132Z,34.35
2022-08-09T10:24:03.951Z,34.23
2022-08-09T10:25:06.962Z,34.31
2022-08-09T10:26:07.887Z,34.26
2022-08-09T10:27:05.414Z,34.07
2022-08-09T10:28:04.081Z,33.92
2022-08-09T10:29:23.242Z,33.67
2022-08-09T10:30:41.758Z,33.33
2022-08-09T10:33:04.075Z,32.06
2022-08-09T10:34:08.676Z,31.76
2022-08-09T10:35:04.020Z,31.67
2022-08-09T10:36:03.016Z,31.48
2022-08-09T10:37:03.140Z,30.99
2022-08-09T10:38:03.021Z,30.71
2022-08-09T10:39:03.033Z,30.59
2022-08-09T10:40:04.057Z,30.47
2022-08-09T10:41:03.071Z,30.12
2022-08-09T10:42:03.678Z,30.16
2022-08-09T10:43:02.945Z,30.00
2022-08-09T10:44:02.929Z,29.78
2022-08-09T10:45:04.417Z,29.70
2022-08-09T10:46:03.913Z,29.56
2022-08-09T10:47:03.962Z,29.59
2022-08-09T10:48:17.164Z,29.56
2022-08-09T10:49:03.883Z,29.50
2022-08-09T10:50:03.115Z,29.49
2022-08-09T10:51:02.867Z,29.44
2022-08-09T10:52:02.862Z,29.35
2022-08-09T10:53:02.861Z,29.23
2022-08-09T10:54:05.032Z,29.16
2022-08-09T10:55:02.824Z,29.16
2022-08-09T10:56:02.820Z,29.06
2022-08-09T10:57:02.816Z,28.90
2022-08-09T10:58:02.793Z,28.88
2022-08-09T10:59:02.782Z,28.82
2022-08-09T11:00:03.042Z,28.66
2022-08-09T11:03:02.366Z,28.58
2022-08-09T11:03:14.278Z,28.50
2022-08-09T11:03:19.069Z,28.33
2022-08-09T11:04:06.239Z,28.32
2022-08-09T11:05:02.780Z,28.32
2022-08-09T11:06:02.797Z,28.21
2022-08-09T11:07:02.714Z,28.26
2022-08-09T11:08:02.690Z,28.32
2022-08-09T11:09:15.412Z,28.36
2022-08-09T11:10:03.664Z,28.47
2022-08-09T11:11:08.959Z,28.54
2022-08-09T11:12:05.123Z,28.68
2022-08-09T11:13:02.637Z,28.60
2022-08-09T11:14:02.646Z,28.51
2022-08-09T11:15:02.620Z,28.62
2022-08-09T11:16:04.980Z,28.62
2022-08-09T11:17:02.692Z,28.66
2022-08-09T11:18:03.681Z,28.56
2022-08-09T11:19:02.576Z,28.56
2022-08-09T11:20:10.263Z,28.56
2022-08-09T11:21:03.550Z,28.48
2022-08-09T11:22:10.377Z,28.50
2022-08-09T11:23:07.111Z,28.48
2022-08-09T11:24:04.270Z,28.41
2022-08-09T11:25:02.512Z,28.29
2022-08-09T11:26:02.571Z,28.25
2022-08-09T11:27:06.645Z,28.25
2022-08-09T11:28:27.941Z,28.25
2022-08-09T11:29:03.528Z,28.13
2022-08-09T11:30:05.703Z,28.04
2022-08-09T11:31:03.448Z,28.01
2022-08-09T11:32:02.468Z,28.01
2022-08-09T11:33:02.427Z,27.99
2022-08-09T11:34:02.418Z,27.98
2022-08-09T11:35:02.425Z,28.09
2022-08-09T11:36:02.396Z,28.11
2022-08-09T11:37:02.460Z,28.21
2022-08-09T11:38:02.417Z,28.28
2022-08-09T11:39:02.377Z,28.31
2022-08-09T11:40:02.798Z,28.31
2022-08-09T11:41:02.343Z,28.28
2022-08-09T11:42:02.348Z,28.32
2022-08-09T11:43:02.323Z,28.32
2022-08-09T11:44:02.318Z,28.28
2022-08-09T11:45:02.303Z,28.31
2022-08-09T11:46:02.301Z,28.36
2022-08-09T11:47:02.283Z,28.29
2022-08-09T11:48:08.126Z,28.33
2022-08-09T11:49:04.907Z,28.33
2022-08-09T11:50:53.641Z,28.38
2022-08-09T11:52:38.657Z,28.32
2022-08-09T11:53:04.025Z,28.41
2022-08-09T11:53:44.032Z,28.38
2022-08-09T11:54:07.065Z,28.25
2022-08-09T11:55:03.194Z,28.23
2022-08-09T11:56:03.151Z,28.26
2022-08-09T11:57:02.206Z,28.23
2022-08-09T11:58:06.163Z,28.38
2022-08-09T11:59:03.176Z,28.28
2022-08-09T12:00:02.144Z,28.23
2022-08-09T12:01:02.159Z,28.28
2022-08-09T12:02:17.680Z,28.32
2022-08-09T12:03:31.972Z,28.38
2022-08-09T12:04:03.189Z,28.31
2022-08-09T12:05:02.179Z,28.29
2022-08-09T12:06:02.101Z,28.29
2022-08-09T12:07:02.070Z,28.36
2022-08-09T12:08:02.059Z,28.38
2022-08-09T12:09:02.052Z,28.25
2022-08-09T12:10:02.274Z,28.29
2022-08-09T12:11:02.042Z,28.38
2022-08-09T12:12:03.753Z,28.43
2022-08-09T12:13:03.760Z,28.48
2022-08-09T12:14:10.298Z,28.48
2022-08-09T12:15:08.008Z,28.38
2022-08-09T12:16:03.047Z,28.47
2022-08-09T12:17:01.970Z,28.51
2022-08-09T12:18:02.953Z,28.62
2022-08-09T12:19:01.941Z,28.60
2022-08-09T12:20:01.933Z,28.60
2022-08-09T12:21:02.669Z,28.65
2022-08-09T12:22:01.914Z,28.51
2022-08-09T12:23:01.901Z,28.54
2022-08-09T12:24:08.922Z,28.53
2022-08-09T12:25:02.878Z,28.59
2022-08-09T12:26:01.884Z,28.53
2022-08-09T12:29:11.489Z,28.63
2022-08-09T12:29:13.007Z,28.43
2022-08-09T12:29:14.480Z,28.58
2022-08-09T12:30:36.800Z,28.51
2022-08-09T12:31:02.851Z,28.60
2022-08-09T12:32:03.671Z,28.56
2022-08-09T12:33:01.797Z,28.62
2022-08-09T12:34:01.818Z,28.65
2022-08-09T12:35:03.143Z,28.59
2022-08-09T12:36:01.779Z,28.58
2022-08-09T12:37:22.168Z,28.53
2022-08-09T12:38:02.745Z,28.56
2022-08-09T12:39:02.272Z,28.48
2022-08-09T12:40:02.032Z,28.65
2022-08-09T12:41:01.736Z,28.69
2022-08-09T12:42:01.706Z,28.70
2022-08-09T12:43:01.710Z,28.69
2022-08-09T12:44:06.525Z,28.72
2022-08-09T12:45:02.692Z,28.68
2022-08-09T12:46:02.675Z,28.65
2022-08-09T12:47:01.668Z,28.69
2022-08-09T12:48:01.642Z,28.53
2022-08-09T12:49:01.650Z,28.58
2022-08-09T12:50:01.616Z,28.59
2022-08-09T12:51:04.086Z,28.59
2022-08-09T12:52:03.403Z,28.50
2022-08-09T12:53:17.647Z,28.53
2022-08-09T12:54:02.584Z,28.51
2022-08-09T12:56:12.145Z,28.47